sensor_id;sensor_type;location;lat;lon;timestamp;pressure;altitude;pressure_sealevel;temperature;humidity
73821;BME280;62150;43.582;1.456;2022-10-16T05:37:31;99807.56;;;18.03;84.92
73821;BME280;62150;43.582;1.456;2022-10-16T05:39:59;99804.84;;;18.04;85.82
73821;BME280;62150;43.582;1.456;2022-10-16T05:42:26;99802.25;;;18.04;85.57
73821;BME280;62150;43.582;1.456;2022-10-16T05:44:54;99809.94;;;18.06;85.58
73821;BME280;62150;43.582;1.456;2022-10-16T05:47:21;99808.16;;;18.06;84.09
73821;BME280;62150;43.582;1.456;2022-10-16T05:49:49;99800.25;;;18.08;85.25
73821;BME280;62150;43.582;1.456;2022-10-16T05:52:16;99791.50;;;18.09;84.48
73821;BME280;62150;43.582;1.456;2022-10-16T05:54:45;99798.34;;;18.10;84.73
73821;BME280;62150;43.582;1.456;2022-10-16T05:57:12;99793.03;;;18.12;83.85
73821;BME280;62150;43.582;1.456;2022-10-16T05:59:40;99792.94;;;18.13;84.35
73821;BME280;62150;43.582;1.456;2022-10-16T06:02:10;99793.53;;;18.17;84.84
73821;BME280;62150;43.582;1.456;2022-10-16T06:04:39;99795.53;;;18.13;84.05
73821;BME280;62150;43.582;1.456;2022-10-16T06:07:06;99801.31;;;18.05;84.70
73821;BME280;62150;43.582;1.456;2022-10-16T06:09:34;99804.84;;;18.04;84.89
73821;BME280;62150;43.582;1.456;2022-10-16T06:12:03;99797.75;;;18.06;86.08
73821;BME280;62150;43.582;1.456;2022-10-16T06:14:30;99803.06;;;18.05;85.60
73821;BME280;62150;43.582;1.456;2022-10-16T06:16:58;99808.28;;;18.05;86.33
73821;BME280;62150;43.582;1.456;2022-10-16T06:19:25;99810.63;;;18.08;84.71
73821;BME280;62150;43.582;1.456;2022-10-16T06:21:52;99811.47;;;18.08;84.82
73821;BME280;62150;43.582;1.456;2022-10-16T06:24:20;99813.13;;;18.09;84.75
73821;BME280;62150;43.582;1.456;2022-10-16T06:26:48;99808.53;;;18.13;84.99
73821;BME280;62150;43.582;1.456;2022-10-16T06:29:17;99817.88;;;18.16;86.01
73821;BME280;62150;43.582;1.456;2022-10-16T06:31:44;99809.97;;;18.17;85.55
73821;BME280;62150;43.582;1.456;2022-10-16T06:34:12;99818.34;;;18.21;84.57
73821;BME280;62150;43.582;1.456;2022-10-16T06:36:40;99817.75;;;18.17;85.40
73821;BME280;62150;43.582;1.456;2022-10-16T06:39:07;99819.28;;;18.20;84.92
73821;BME280;62150;43.582;1.456;2022-10-16T06:41:35;99826.97;;;18.21;84.98
73821;BME280;62150;43.582;1.456;2022-10-16T06:44:06;99823.94;;;18.27;85.67
73821;BME280;62150;43.582;1.456;2022-10-16T06:46:35;99834.94;;;18.31;84.63
73821;BME280;62150;43.582;1.456;2022-10-16T06:49:02;99837.28;;;18.34;84.68
73821;BME280;62150;43.582;1.456;2022-10-16T06:51:30;99840.72;;;18.34;84.08
73821;BME280;62150;43.582;1.456;2022-10-16T06:54:00;99837.88;;;18.37;84.62
73821;BME280;62150;43.582;1.456;2022-10-16T06:56:29;99846.25;;;18.41;84.90
73821;BME280;62150;43.582;1.456;2022-10-16T06:58:57;99846.97;;;18.43;84.09
73821;BME280;62150;43.582;1.456;2022-10-16T07:01:25;99846.75;;;18.46;84.11
73821;BME280;62150;43.582;1.456;2022-10-16T07:03:54;99846.63;;;18.48;83.64
73821;BME280;62150;43.582;1.456;2022-10-16T07:06:24;99844.84;;;18.48;83.85
73821;BME280;62150;43.582;1.456;2022-10-16T07:08:52;99858.56;;;18.50;83.31
73821;BME280;62150;43.582;1.456;2022-10-16T07:11:22;99855.84;;;18.52;84.11
73821;BME280;62150;43.582;1.456;2022-10-16T07:13:50;99865.19;;;18.54;83.96
73821;BME280;62150;43.582;1.456;2022-10-16T07:16:21;99853.75;;;18.57;83.80
73821;BME280;62150;43.582;1.456;2022-10-16T07:18:49;99863.00;;;18.61;82.62
73821;BME280;62150;43.582;1.456;2022-10-16T07:21:21;99866.09;;;18.66;82.98
73821;BME280;62150;43.582;1.456;2022-10-16T07:23:51;99868.53;;;18.79;82.43
73821;BME280;62150;43.582;1.456;2022-10-16T07:26:19;99873.28;;;18.85;81.95
73821;BME280;62150;43.582;1.456;2022-10-16T07:28:47;99882.50;;;18.89;82.24
73821;BME280;62150;43.582;1.456;2022-10-16T07:31:15;99882.16;;;18.93;81.92
73821;BME280;62150;43.582;1.456;2022-10-16T07:33:44;99881.81;;;18.98;81.08
73821;BME280;62150;43.582;1.456;2022-10-16T07:36:14;99882.28;;;19.03;81.32
73821;BME280;62150;43.582;1.456;2022-10-16T07:38:44;99883.94;;;19.04;81.86
73821;BME280;62150;43.582;1.456;2022-10-16T07:41:13;99881.91;;;19.07;81.08
73821;BME280;62150;43.582;1.456;2022-10-16T07:43:45;99882.47;;;19.11;80.24
73821;BME280;62150;43.582;1.456;2022-10-16T07:46:13;99896.69;;;19.18;80.10
73821;BME280;62150;43.582;1.456;2022-10-16T07:48:41;99891.94;;;19.23;80.63
73821;BME280;62150;43.582;1.456;2022-10-16T07:51:12;99897.38;;;19.31;80.79
73821;BME280;62150;43.582;1.456;2022-10-16T07:53:40;99902.13;;;19.37;80.63
73821;BME280;62150;43.582;1.456;2022-10-16T07:56:10;99901.16;;;19.38;79.52
73821;BME280;62150;43.582;1.456;2022-10-16T07:58:37;99908.03;;;19.51;79.76
73821;BME280;62150;43.582;1.456;2022-10-16T08:01:06;99908.13;;;19.60;80.19
73821;BME280;62150;43.582;1.456;2022-10-16T08:03:34;99910.25;;;19.66;79.88
73821;BME280;62150;43.582;1.456;2022-10-16T08:06:03;99904.41;;;19.74;79.44
73821;BME280;62150;43.582;1.456;2022-10-16T08:08:31;99896.72;;;19.72;79.43
73821;BME280;62150;43.582;1.456;2022-10-16T08:10:58;99910.13;;;19.68;79.62
73821;BME280;62150;43.582;1.456;2022-10-16T08:13:27;99910.38;;;19.65;79.29
73821;BME280;62150;43.582;1.456;2022-10-16T08:15:55;99917.59;;;19.61;79.57
73821;BME280;62150;43.582;1.456;2022-10-16T08:18:23;99917.84;;;19.58;79.77
73821;BME280;62150;43.582;1.456;2022-10-16T08:20:56;99920.31;;;19.60;79.77
73821;BME280;62150;43.582;1.456;2022-10-16T08:23:24;99919.84;;;19.66;79.09
73821;BME280;62150;43.582;1.456;2022-10-16T08:25:52;99921.00;;;19.73;79.10
73821;BME280;62150;43.582;1.456;2022-10-16T08:28:20;99927.16;;;19.72;79.04
73821;BME280;62150;43.582;1.456;2022-10-16T08:30:50;99927.72;;;19.75;79.13
73821;BME280;62150;43.582;1.456;2022-10-16T08:33:17;99923.91;;;19.80;78.43
73821;BME280;62150;43.582;1.456;2022-10-16T08:35:51;99918.34;;;19.84;78.94
73821;BME280;62150;43.582;1.456;2022-10-16T08:38:19;99919.28;;;19.83;78.41
73821;BME280;62150;43.582;1.456;2022-10-16T08:40:47;99918.22;;;19.86;78.63
73821;BME280;62150;43.582;1.456;2022-10-16T08:43:33;99927.31;;;19.91;78.34
73821;BME280;62150;43.582;1.456;2022-10-16T08:48:58;99928.38;;;20.00;77.67
73821;BME280;62150;43.582;1.456;2022-10-16T08:51:28;99930.97;;;20.00;77.32
73821;BME280;62150;43.582;1.456;2022-10-16T08:53:58;99939.00;;;20.08;77.31
73821;BME280;62150;43.582;1.456;2022-10-16T08:56:27;99937.66;;;20.14;77.11
73821;BME280;62150;43.582;1.456;2022-10-16T08:58:55;99940.47;;;20.22;76.49
73821;BME280;62150;43.582;1.456;2022-10-16T09:01:35;99932.13;;;20.28;76.70
73821;BME280;62150;43.582;1.456;2022-10-16T09:07:14;99945.88;;;20.41;76.16
73821;BME280;62150;43.582;1.456;2022-10-16T09:10:15;99938.47;;;20.46;75.87
73821;BME280;62150;43.582;1.456;2022-10-16T09:12:53;99937.69;;;20.55;75.51
73821;BME280;62150;43.582;1.456;2022-10-16T09:15:31;99915.88;;;20.56;75.14
73821;BME280;62150;43.582;1.456;2022-10-16T09:18:07;99927.56;;;20.62;74.73
73821;BME280;62150;43.582;1.456;2022-10-16T09:20:45;99931.06;;;20.72;74.20
73821;BME280;62150;43.582;1.456;2022-10-16T09:23:18;99927.38;;;20.74;74.52
73821;BME280;62150;43.582;1.456;2022-10-16T09:25:48;99926.00;;;20.80;74.19
73821;BME280;62150;43.582;1.456;2022-10-16T09:28:17;99930.00;;;20.84;73.86
73821;BME280;62150;43.582;1.456;2022-10-16T09:30:45;99931.63;;;21.06;72.65
73821;BME280;62150;43.582;1.456;2022-10-16T09:33:17;99927.81;;;21.10;72.57
73821;BME280;62150;43.582;1.456;2022-10-16T09:35:48;99927.72;;;21.21;71.54
73821;BME280;62150;43.582;1.456;2022-10-16T09:38:27;99932.94;;;21.21;71.80
73821;BME280;62150;43.582;1.456;2022-10-16T09:40:56;99920.75;;;21.31;70.45
73821;BME280;62150;43.582;1.456;2022-10-16T09:43:26;99927.78;;;21.40;70.21
73821;BME280;62150;43.582;1.456;2022-10-16T09:46:02;99918.28;;;21.39;70.97
73821;BME280;62150;43.582;1.456;2022-10-16T09:48:37;99916.66;;;21.48;70.61
73821;BME280;62150;43.582;1.456;2022-10-16T09:51:13;99904.53;;;21.57;69.61
73821;BME280;62150;43.582;1.456;2022-10-16T09:53:44;99923.81;;;21.56;69.50
73821;BME280;62150;43.582;1.456;2022-10-16T09:56:20;99916.53;;;21.69;69.65
73821;BME280;62150;43.582;1.456;2022-10-16T09:58:50;99924.97;;;21.82;69.13
73821;BME280;62150;43.582;1.456;2022-10-16T10:01:20;99923.00;;;21.84;69.06
73821;BME280;62150;43.582;1.456;2022-10-16T10:03:49;99927.41;;;21.84;68.22
73821;BME280;62150;43.582;1.456;2022-10-16T10:06:23;99925.50;;;21.86;67.73
73821;BME280;62150;43.582;1.456;2022-10-16T10:09:02;99923.44;;;21.89;68.10
73821;BME280;62150;43.582;1.456;2022-10-16T10:11:38;99923.56;;;21.97;68.17
73821;BME280;62150;43.582;1.456;2022-10-16T10:14:06;99919.88;;;22.10;67.04
73821;BME280;62150;43.582;1.456;2022-10-16T10:16:37;99924.56;;;22.06;66.22
73821;BME280;62150;43.582;1.456;2022-10-16T10:19:14;99921.81;;;22.08;67.46
73821;BME280;62150;43.582;1.456;2022-10-16T10:21:42;99921.00;;;22.17;66.61
73821;BME280;62150;43.582;1.456;2022-10-16T10:24:14;99910.50;;;22.26;67.01
73821;BME280;62150;43.582;1.456;2022-10-16T10:26:54;99915.16;;;22.32;66.69
73821;BME280;62150;43.582;1.456;2022-10-16T10:29:32;99919.72;;;22.40;66.16
73821;BME280;62150;43.582;1.456;2022-10-16T10:32:14;99906.75;;;22.48;66.45
73821;BME280;62150;43.582;1.456;2022-10-16T10:35:05;99904.38;;;22.55;65.97
73821;BME280;62150;43.582;1.456;2022-10-16T10:37:44;99911.66;;;22.61;66.19
73821;BME280;62150;43.582;1.456;2022-10-16T10:40:23;99913.56;;;22.68;65.01
73821;BME280;62150;43.582;1.456;2022-10-16T10:43:00;99902.25;;;22.78;66.00
73821;BME280;62150;43.582;1.456;2022-10-16T10:45:37;99906.34;;;22.90;64.43
73821;BME280;62150;43.582;1.456;2022-10-16T10:48:32;99907.03;;;22.92;65.28
73821;BME280;62150;43.582;1.456;2022-10-16T10:51:12;99890.88;;;22.96;63.42
73821;BME280;62150;43.582;1.456;2022-10-16T10:53:52;99895.00;;;22.99;63.56
73821;BME280;62150;43.582;1.456;2022-10-16T10:56:37;99899.53;;;23.06;62.49
73821;BME280;62150;43.582;1.456;2022-10-16T10:59:19;99894.25;;;23.16;63.18
73821;BME280;62150;43.582;1.456;2022-10-16T11:01:54;99899.19;;;23.19;62.45
73821;BME280;62150;43.582;1.456;2022-10-16T11:04:57;99895.66;;;23.28;62.71
73821;BME280;62150;43.582;1.456;2022-10-16T11:07:32;99903.91;;;23.33;62.57
73821;BME280;62150;43.582;1.456;2022-10-16T11:10:05;99897.56;;;23.36;61.79
73821;BME280;62150;43.582;1.456;2022-10-16T11:12:39;99907.47;;;23.42;62.33
73821;BME280;62150;43.582;1.456;2022-10-16T11:15:15;99903.72;;;23.45;62.52
73821;BME280;62150;43.582;1.456;2022-10-16T11:17:50;99886.56;;;23.50;61.99
73821;BME280;62150;43.582;1.456;2022-10-16T11:20:21;99895.16;;;23.70;62.30
73821;BME280;62150;43.582;1.456;2022-10-16T11:22:55;99896.19;;;23.77;61.42
73821;BME280;62150;43.582;1.456;2022-10-16T11:25:26;99884.34;;;23.73;61.68
73821;BME280;62150;43.582;1.456;2022-10-16T11:27:57;99896.50;;;23.74;61.15
73821;BME280;62150;43.582;1.456;2022-10-16T11:30:27;99886.38;;;23.79;61.04
73821;BME280;62150;43.582;1.456;2022-10-16T11:33:04;99877.63;;;23.88;60.50
73821;BME280;62150;43.582;1.456;2022-10-16T11:35:41;99888.59;;;23.92;59.56
73821;BME280;62150;43.582;1.456;2022-10-16T11:38:18;99896.94;;;23.87;59.45
73821;BME280;62150;43.582;1.456;2022-10-16T11:40:52;99874.06;;;23.97;58.90
73821;BME280;62150;43.582;1.456;2022-10-16T11:43:27;99878.03;;;24.01;59.02
73821;BME280;62150;43.582;1.456;2022-10-16T11:45:57;99876.06;;;24.03;58.16
73821;BME280;62150;43.582;1.456;2022-10-16T11:48:31;99868.50;;;24.00;58.29
73821;BME280;62150;43.582;1.456;2022-10-16T11:51:05;99872.47;;;24.04;58.37
73821;BME280;62150;43.582;1.456;2022-10-16T11:53:43;99867.28;;;24.13;57.68
73821;BME280;62150;43.582;1.456;2022-10-16T11:56:13;99857.91;;;24.10;57.91
73821;BME280;62150;43.582;1.456;2022-10-16T11:58:51;99847.78;;;24.15;57.53
73821;BME280;62150;43.582;1.456;2022-10-16T12:01:26;99832.88;;;24.16;57.52
73821;BME280;62150;43.582;1.456;2022-10-16T12:04:12;99819.28;;;24.20;56.80
73821;BME280;62150;43.582;1.456;2022-10-16T12:06:44;99822.56;;;24.22;56.87
73821;BME280;62150;43.582;1.456;2022-10-16T12:09:20;99821.50;;;24.33;56.59
73821;BME280;62150;43.582;1.456;2022-10-16T12:11:49;99814.13;;;24.36;55.92
73821;BME280;62150;43.582;1.456;2022-10-16T12:17:03;99813.25;;;24.28;56.62
73821;BME280;62150;43.582;1.456;2022-10-16T12:19:33;99790.09;;;24.49;56.21
73821;BME280;62150;43.582;1.456;2022-10-16T12:22:02;99801.94;;;24.61;54.90
73821;BME280;62150;43.582;1.456;2022-10-16T12:24:35;99801.59;;;24.56;54.37
73821;BME280;62150;43.582;1.456;2022-10-16T12:27:05;99787.81;;;24.62;54.18
73821;BME280;62150;43.582;1.456;2022-10-16T12:29:36;99809.19;;;24.59;53.89
73821;BME280;62150;43.582;1.456;2022-10-16T12:32:26;99802.63;;;24.71;54.09
73821;BME280;62150;43.582;1.456;2022-10-16T12:34:55;99812.53;;;24.78;52.94
73821;BME280;62150;43.582;1.456;2022-10-16T12:37:25;99803.03;;;24.85;52.77
73821;BME280;62150;43.582;1.456;2022-10-16T12:39:55;99816.81;;;24.87;52.57
73821;BME280;62150;43.582;1.456;2022-10-16T12:42:32;99815.91;;;25.04;52.14
73821;BME280;62150;43.582;1.456;2022-10-16T12:45:01;99806.38;;;25.03;51.88
73821;BME280;62150;43.582;1.456;2022-10-16T12:47:50;99807.84;;;24.97;52.07
73821;BME280;62150;43.582;1.456;2022-10-16T12:50:27;99791.63;;;25.10;51.57
73821;BME280;62150;43.582;1.456;2022-10-16T12:52:56;99796.22;;;25.16;51.75
73821;BME280;62150;43.582;1.456;2022-10-16T12:55:27;99799.81;;;25.07;51.98
73821;BME280;62150;43.582;1.456;2022-10-16T12:58:18;99800.28;;;25.02;51.79
73821;BME280;62150;43.582;1.456;2022-10-16T13:00:54;99797.78;;;24.85;52.28
73821;BME280;62150;43.582;1.456;2022-10-16T13:03:39;99808.78;;;24.88;53.10
73821;BME280;62150;43.582;1.456;2022-10-16T13:06:20;99804.03;;;24.92;53.33
73821;BME280;62150;43.582;1.456;2022-10-16T13:09:09;99812.47;;;25.03;52.77
73821;BME280;62150;43.582;1.456;2022-10-16T13:11:54;99810.31;;;24.99;53.79
73821;BME280;62150;43.582;1.456;2022-10-16T13:14:50;99814.38;;;24.93;52.74
73821;BME280;62150;43.582;1.456;2022-10-16T13:17:29;99816.81;;;24.87;53.56
73821;BME280;62150;43.582;1.456;2022-10-16T13:20:06;99817.81;;;24.86;53.30
73821;BME280;62150;43.582;1.456;2022-10-16T13:22:45;99819.53;;;25.03;52.65
73821;BME280;62150;43.582;1.456;2022-10-16T13:25:22;99825.44;;;25.05;52.60
73821;BME280;62150;43.582;1.456;2022-10-16T13:27:56;99820.81;;;24.99;52.81
73821;BME280;62150;43.582;1.456;2022-10-16T13:30:33;99820.34;;;25.03;52.99
73821;BME280;62150;43.582;1.456;2022-10-16T13:33:06;99819.53;;;25.11;53.10
73821;BME280;62150;43.582;1.456;2022-10-16T13:35:35;99809.53;;;25.15;53.36
73821;BME280;62150;43.582;1.456;2022-10-16T13:38:14;99813.97;;;25.30;52.94
73821;BME280;62150;43.582;1.456;2022-10-16T13:40:50;99824.72;;;25.53;52.68
73821;BME280;62150;43.582;1.456;2022-10-16T13:43:22;99815.00;;;25.54;50.89
73821;BME280;62150;43.582;1.456;2022-10-16T13:45:55;99819.97;;;25.73;50.89
73821;BME280;62150;43.582;1.456;2022-10-16T13:48:23;99807.28;;;25.60;51.69
73821;BME280;62150;43.582;1.456;2022-10-16T13:51:06;99814.69;;;25.57;51.55
73821;BME280;62150;43.582;1.456;2022-10-16T13:53:35;99810.41;;;25.56;51.40
73821;BME280;62150;43.582;1.456;2022-10-16T13:56:05;99811.56;;;25.53;51.44
73821;BME280;62150;43.582;1.456;2022-10-16T13:58:34;99813.34;;;25.36;50.97
73821;BME280;62150;43.582;1.456;2022-10-16T14:01:04;99821.72;;;25.40;51.58
73821;BME280;62150;43.582;1.456;2022-10-16T14:03:34;99809.56;;;25.47;52.15
73821;BME280;62150;43.582;1.456;2022-10-16T14:06:04;99814.03;;;25.63;51.85
73821;BME280;62150;43.582;1.456;2022-10-16T14:08:43;99816.66;;;25.71;52.20
73821;BME280;62150;43.582;1.456;2022-10-16T14:11:12;99801.53;;;25.65;52.38
73821;BME280;62150;43.582;1.456;2022-10-16T14:13:46;99821.94;;;25.87;52.34
73821;BME280;62150;43.582;1.456;2022-10-16T14:16:17;99821.94;;;25.87;52.06
73821;BME280;62150;43.582;1.456;2022-10-16T14:18:50;99816.84;;;25.78;52.48
73821;BME280;62150;43.582;1.456;2022-10-16T14:21:20;99823.25;;;25.91;51.83
73821;BME280;62150;43.582;1.456;2022-10-16T14:23:48;99822.59;;;25.65;52.41
73821;BME280;62150;43.582;1.456;2022-10-16T14:26:18;99831.81;;;25.69;52.95
73821;BME280;62150;43.582;1.456;2022-10-16T14:28:48;99830.66;;;25.80;52.93
73821;BME280;62150;43.582;1.456;2022-10-16T14:31:28;99830.16;;;25.76;53.16
73821;BME280;62150;43.582;1.456;2022-10-16T14:33:56;99831.78;;;25.61;53.00
73821;BME280;62150;43.582;1.456;2022-10-16T14:36:24;99830.47;;;25.73;52.83
73821;BME280;62150;43.582;1.456;2022-10-16T14:38:59;99822.78;;;25.63;53.22
73821;BME280;62150;43.582;1.456;2022-10-16T14:41:29;99829.75;;;25.30;53.88
73821;BME280;62150;43.582;1.456;2022-10-16T14:44:02;99829.06;;;25.12;54.88
73821;BME280;62150;43.582;1.456;2022-10-16T14:46:33;99849.56;;;25.00;54.63
73821;BME280;62150;43.582;1.456;2022-10-16T14:49:05;99827.94;;;24.72;54.87
73821;BME280;62150;43.582;1.456;2022-10-16T14:51:41;99838.72;;;24.61;55.07
73821;BME280;62150;43.582;1.456;2022-10-16T14:54:11;99833.84;;;24.41;55.29
73821;BME280;62150;43.582;1.456;2022-10-16T14:56:48;99843.13;;;24.53;55.27
73821;BME280;62150;43.582;1.456;2022-10-16T14:59:19;99837.81;;;24.45;55.93
73821;BME280;62150;43.582;1.456;2022-10-16T15:01:49;99839.97;;;24.49;55.67
73821;BME280;62150;43.582;1.456;2022-10-16T15:04:16;99838.66;;;24.45;56.47
73821;BME280;62150;43.582;1.456;2022-10-16T15:06:45;99843.84;;;24.37;56.77
73821;BME280;62150;43.582;1.456;2022-10-16T15:09:12;99840.28;;;24.46;55.89
73821;BME280;62150;43.582;1.456;2022-10-16T15:11:40;99839.78;;;24.43;55.33
73821;BME280;62150;43.582;1.456;2022-10-16T15:14:11;99841.69;;;24.66;56.29
73821;BME280;62150;43.582;1.456;2022-10-16T15:16:41;99837.41;;;24.65;55.94
73821;BME280;62150;43.582;1.456;2022-10-16T15:19:09;99843.03;;;24.70;56.21
73821;BME280;62150;43.582;1.456;2022-10-16T15:21:36;99854.81;;;24.58;56.22
73821;BME280;62150;43.582;1.456;2022-10-16T15:24:10;99860.75;;;24.68;56.21
73821;BME280;62150;43.582;1.456;2022-10-16T15:26:39;99855.34;;;24.70;56.15
73821;BME280;62150;43.582;1.456;2022-10-16T15:29:07;99867.22;;;24.82;55.84
73821;BME280;62150;43.582;1.456;2022-10-16T15:31:34;99864.16;;;24.95;55.67
73821;BME280;62150;43.582;1.456;2022-10-16T15:34:04;99853.91;;;25.18;55.04
73821;BME280;62150;43.582;1.456;2022-10-16T15:36:34;99859.63;;;25.13;55.36
73821;BME280;62150;43.582;1.456;2022-10-16T15:39:03;99864.25;;;25.11;55.08
73821;BME280;62150;43.582;1.456;2022-10-16T15:41:31;99856.53;;;25.18;54.97
73821;BME280;62150;43.582;1.456;2022-10-16T15:43:58;99877.44;;;25.27;54.70
73821;BME280;62150;43.582;1.456;2022-10-16T15:46:26;99863.41;;;25.11;54.95
73821;BME280;62150;43.582;1.456;2022-10-16T15:48:57;99861.94;;;25.16;54.83
73821;BME280;62150;43.582;1.456;2022-10-16T15:51:27;99863.94;;;25.22;55.52
73821;BME280;62150;43.582;1.456;2022-10-16T15:53:56;99865.34;;;25.00;56.42
73821;BME280;62150;43.582;1.456;2022-10-16T15:56:24;99858.00;;;25.12;55.93
73821;BME280;62150;43.582;1.456;2022-10-16T15:58:52;99848.09;;;24.98;55.73
73821;BME280;62150;43.582;1.456;2022-10-16T16:01:20;99858.88;;;24.87;56.36
73821;BME280;62150;43.582;1.456;2022-10-16T16:03:47;99856.75;;;24.90;56.79
73821;BME280;62150;43.582;1.456;2022-10-16T16:06:19;99856.91;;;24.89;56.92
73821;BME280;62150;43.582;1.456;2022-10-16T16:08:48;99853.63;;;24.87;56.81
73821;BME280;62150;43.582;1.456;2022-10-16T16:11:17;99847.56;;;24.94;56.92
73821;BME280;62150;43.582;1.456;2022-10-16T16:13:44;99849.41;;;24.68;57.17
73821;BME280;62150;43.582;1.456;2022-10-16T16:16:14;99850.72;;;24.64;57.79
73821;BME280;62150;43.582;1.456;2022-10-16T16:18:42;99846.88;;;24.50;57.94
73821;BME280;62150;43.582;1.456;2022-10-16T16:21:11;99851.31;;;24.50;58.64
73821;BME280;62150;43.582;1.456;2022-10-16T16:23:38;99850.28;;;24.43;58.44
73821;BME280;62150;43.582;1.456;2022-10-16T16:26:11;99864.38;;;24.16;58.94
73821;BME280;62150;43.582;1.456;2022-10-16T16:28:40;99866.78;;;23.91;59.68
73821;BME280;62150;43.582;1.456;2022-10-16T16:31:08;99863.84;;;23.94;59.27
73821;BME280;62150;43.582;1.456;2022-10-16T16:33:36;99860.97;;;23.62;61.29
73821;BME280;62150;43.582;1.456;2022-10-16T16:36:05;99864.34;;;23.72;61.53
73821;BME280;62150;43.582;1.456;2022-10-16T16:38:33;99867.47;;;23.58;61.57
73821;BME280;62150;43.582;1.456;2022-10-16T16:41:13;99864.84;;;23.40;61.45
73821;BME280;62150;43.582;1.456;2022-10-16T16:43:41;99864.44;;;23.35;61.75
73821;BME280;62150;43.582;1.456;2022-10-16T16:46:08;99862.03;;;23.24;62.78
73821;BME280;62150;43.582;1.456;2022-10-16T16:48:36;99862.41;;;23.11;63.40
73821;BME280;62150;43.582;1.456;2022-10-16T16:51:04;99869.69;;;23.17;63.02
73821;BME280;62150;43.582;1.456;2022-10-16T16:53:33;99873.16;;;23.08;63.55
73821;BME280;62150;43.582;1.456;2022-10-16T16:56:02;99881.22;;;22.97;63.44
73821;BME280;62150;43.582;1.456;2022-10-16T16:58:31;99876.56;;;22.91;64.05
73821;BME280;62150;43.582;1.456;2022-10-16T17:00:59;99877.72;;;22.79;65.19
73821;BME280;62150;43.582;1.456;2022-10-16T17:03:28;99874.97;;;22.80;64.26
73821;BME280;62150;43.582;1.456;2022-10-16T17:05:56;99873.72;;;22.74;64.57
73821;BME280;62150;43.582;1.456;2022-10-16T17:08:24;99882.44;;;22.65;66.06
73821;BME280;62150;43.582;1.456;2022-10-16T17:10:51;99891.81;;;22.58;65.71
73821;BME280;62150;43.582;1.456;2022-10-16T17:13:21;99904.50;;;22.53;65.77
73821;BME280;62150;43.582;1.456;2022-10-16T17:15:51;99905.78;;;22.49;65.67
73821;BME280;62150;43.582;1.456;2022-10-16T17:18:20;99918.06;;;22.39;66.09
73821;BME280;62150;43.582;1.456;2022-10-16T17:20:48;99906.63;;;22.40;66.24
73821;BME280;62150;43.582;1.456;2022-10-16T17:23:17;99920.13;;;22.45;65.83
73821;BME280;62150;43.582;1.456;2022-10-16T17:25:46;99920.81;;;22.28;67.35
73821;BME280;62150;43.582;1.456;2022-10-16T17:28:13;99926.19;;;22.26;67.77
73821;BME280;62150;43.582;1.456;2022-10-16T17:30:42;99926.06;;;22.18;66.97
73821;BME280;62150;43.582;1.456;2022-10-16T17:33:11;99929.13;;;22.14;67.97
73821;BME280;62150;43.582;1.456;2022-10-16T17:35:41;99936.69;;;22.17;67.83
73821;BME280;62150;43.582;1.456;2022-10-16T17:38:10;99942.75;;;22.08;67.48
73821;BME280;62150;43.582;1.456;2022-10-16T17:40:38;99947.44;;;22.04;68.52
73821;BME280;62150;43.582;1.456;2022-10-16T17:43:06;99952.06;;;22.00;67.89
73821;BME280;62150;43.582;1.456;2022-10-16T17:45:36;99962.94;;;21.96;68.05
73821;BME280;62150;43.582;1.456;2022-10-16T17:48:04;99977.13;;;21.93;68.67
73821;BME280;62150;43.582;1.456;2022-10-16T17:50:34;99969.81;;;21.87;69.53
73821;BME280;62150;43.582;1.456;2022-10-16T17:53:05;99978.63;;;21.86;68.87
73821;BME280;62150;43.582;1.456;2022-10-16T17:55:37;99991.28;;;21.91;68.53
73821;BME280;62150;43.582;1.456;2022-10-16T17:58:05;99983.03;;;21.76;69.83
73821;BME280;62150;43.582;1.456;2022-10-16T18:00:32;99994.44;;;21.85;69.39
73821;BME280;62150;43.582;1.456;2022-10-16T18:03:00;99979.84;;;21.72;69.47
73821;BME280;62150;43.582;1.456;2022-10-16T18:05:28;99988.78;;;21.70;70.15
73821;BME280;62150;43.582;1.456;2022-10-16T18:07:57;100001.19;;;21.68;70.16
73821;BME280;62150;43.582;1.456;2022-10-16T18:10:24;99997.97;;;21.55;70.17
73821;BME280;62150;43.582;1.456;2022-10-16T18:12:52;99990.94;;;21.55;70.54
73821;BME280;62150;43.582;1.456;2022-10-16T18:15:19;99999.88;;;21.53;70.77
73821;BME280;62150;43.582;1.456;2022-10-16T18:17:47;99997.41;;;21.51;70.98
73821;BME280;62150;43.582;1.456;2022-10-16T18:20:14;99999.06;;;21.52;70.69
73821;BME280;62150;43.582;1.456;2022-10-16T18:22:42;99997.00;;;21.56;70.55
73821;BME280;62150;43.582;1.456;2022-10-16T18:25:11;99999.63;;;21.56;70.95
73821;BME280;62150;43.582;1.456;2022-10-16T18:27:38;100006.06;;;21.52;71.29
73821;BME280;62150;43.582;1.456;2022-10-16T18:30:06;100012.69;;;21.46;71.05
73821;BME280;62150;43.582;1.456;2022-10-16T18:32:34;100014.34;;;21.47;71.17
73821;BME280;62150;43.582;1.456;2022-10-16T18:35:02;100009.19;;;21.36;72.11
73821;BME280;62150;43.582;1.456;2022-10-16T18:37:29;100020.78;;;21.43;71.79
73821;BME280;62150;43.582;1.456;2022-10-16T18:39:57;100024.50;;;21.40;71.56
73821;BME280;62150;43.582;1.456;2022-10-16T18:42:25;100025.13;;;21.33;72.27
73821;BME280;62150;43.582;1.456;2022-10-16T18:44:53;100021.44;;;21.35;71.47
73821;BME280;62150;43.582;1.456;2022-10-16T18:47:20;100019.09;;;21.32;71.90
73821;BME280;62150;43.582;1.456;2022-10-16T18:49:48;100014.94;;;21.30;72.25
73821;BME280;62150;43.582;1.456;2022-10-16T18:52:16;100015.59;;;21.22;72.25
73821;BME280;62150;43.582;1.456;2022-10-16T18:54:43;100018.34;;;21.21;72.43
73821;BME280;62150;43.582;1.456;2022-10-16T18:57:11;100027.94;;;21.20;72.38
73821;BME280;62150;43.582;1.456;2022-10-16T18:59:40;100029.84;;;21.18;72.29
73821;BME280;62150;43.582;1.456;2022-10-16T19:02:08;100038.63;;;21.17;72.32
73821;BME280;62150;43.582;1.456;2022-10-16T19:04:36;100030.53;;;21.20;72.15
73821;BME280;62150;43.582;1.456;2022-10-16T19:07:04;100041.47;;;21.25;72.32